sensor_id;sensor_type;location;lat;lon;timestamp;temperature;humidity
26575;DHT22;67165;50.256;10.978;2023-02-28T00:00:37;-1.80;98.00
26575;DHT22;67165;50.256;10.978;2023-02-28T00:03:03;-1.70;98.00
26575;DHT22;67165;50.256;10.978;2023-02-28T00:05:29;-1.60;98.00
26575;DHT22;67165;50.256;10.978;2023-02-28T00:07:55;-1.60;98.00
26575;DHT22;67165;50.256;10.978;2023-02-28T00:10:26;-1.50;98.00
26575;DHT22;67165;50.256;10.978;2023-02-28T00:12:54;-1.50;98.00
26575;DHT22;67165;50.256;10.978;2023-02-28T00:15:22;-1.60;98.00
26575;DHT22;67165;50.256;10.978;2023-02-28T00:17:48;-1.60;98.00
26575;DHT22;67165;50.256;10.978;2023-02-28T00:20:14;-1.50;98.00
26575;DHT22;67165;50.256;10.978;2023-02-28T00:22:43;-1.40;98.00
26575;DHT22;67165;50.256;10.978;2023-02-28T00:25:10;-1.40;98.00
26575;DHT22;67165;50.256;10.978;2023-02-28T00:27:38;-1.40;98.00
26575;DHT22;67165;50.256;10.978;2023-02-28T00:30:04;-1.40;98.00
26575;DHT22;67165;50.256;10.978;2023-02-28T00:32:30;-1.30;98.00
26575;DHT22;67165;50.256;10.978;2023-02-28T00:34:56;-1.30;98.00
26575;DHT22;67165;50.256;10.978;2023-02-28T00:37:22;-1.30;98.00
26575;DHT22;67165;50.256;10.978;2023-02-28T00:39:48;-1.20;98.00
26575;DHT22;67165;50.256;10.978;2023-02-28T00:42:13;-1.30;98.00
26575;DHT22;67165;50.256;10.978;2023-02-28T00:44:39;-1.30;98.00
26575;DHT22;67165;50.256;10.978;2023-02-28T00:47:05;-1.30;98.00
26575;DHT22;67165;50.256;10.978;2023-02-28T00:49:30;-1.40;98.00
26575;DHT22;67165;50.256;10.978;2023-02-28T00:51:56;-1.40;98.00
26575;DHT22;67165;50.256;10.978;2023-02-28T00:54:22;-1.20;98.00
26575;DHT22;67165;50.256;10.978;2023-02-28T00:56:48;-1.20;98.00
26575;DHT22;67165;50.256;10.978;2023-02-28T00:59:15;-1.10;98.00
26575;DHT22;67165;50.256;10.978;2023-02-28T01:01:42;-1.10;98.00
26575;DHT22;67165;50.256;10.978;2023-02-28T01:04:08;-1.10;98.00
26575;DHT22;67165;50.256;10.978;2023-02-28T01:06:34;-1.10;98.00
26575;DHT22;67165;50.256;10.978;2023-02-28T01:09:01;-1.20;98.00
26575;DHT22;67165;50.256;10.978;2023-02-28T01:11:27;-1.20;98.00
26575;DHT22;67165;50.256;10.978;2023-02-28T01:13:53;-1.10;98.00
26575;DHT22;67165;50.256;10.978;2023-02-28T01:16:18;-1.00;98.00
26575;DHT22;67165;50.256;10.978;2023-02-28T01:18:44;-1.00;98.00
26575;DHT22;67165;50.256;10.978;2023-02-28T01:21:12;-1.00;98.00
26575;DHT22;67165;50.256;10.978;2023-02-28T01:23:39;-1.00;98.00
26575;DHT22;67165;50.256;10.978;2023-02-28T01:26:19;-0.90;98.00
26575;DHT22;67165;50.256;10.978;2023-02-28T01:28:46;-0.90;98.00
26575;DHT22;67165;50.256;10.978;2023-02-28T01:31:12;-1.00;98.00
26575;DHT22;67165;50.256;10.978;2023-02-28T01:33:38;-1.00;98.00
26575;DHT22;67165;50.256;10.978;2023-02-28T01:36:06;-1.10;98.00
26575;DHT22;67165;50.256;10.978;2023-02-28T01:38:33;-1.00;98.00
26575;DHT22;67165;50.256;10.978;2023-02-28T01:40:58;-1.00;98.00
26575;DHT22;67165;50.256;10.978;2023-02-28T01:43:27;-1.00;98.00
26575;DHT22;67165;50.256;10.978;2023-02-28T01:45:54;-1.10;98.00
26575;DHT22;67165;50.256;10.978;2023-02-28T01:48:34;-1.00;98.00
26575;DHT22;67165;50.256;10.978;2023-02-28T01:51:08;-1.00;98.00
26575;DHT22;67165;50.256;10.978;2023-02-28T01:53:44;-1.00;98.00
26575;DHT22;67165;50.256;10.978;2023-02-28T01:56:12;-1.00;98.00
26575;DHT22;67165;50.256;10.978;2023-02-28T01:58:39;-1.00;98.00
26575;DHT22;67165;50.256;10.978;2023-02-28T02:01:04;-1.00;98.00
26575;DHT22;67165;50.256;10.978;2023-02-28T02:03:31;-1.00;98.00
26575;DHT22;67165;50.256;10.978;2023-02-28T02:05:57;-1.10;98.00
26575;DHT22;67165;50.256;10.978;2023-02-28T02:08:25;-1.10;98.00
26575;DHT22;67165;50.256;10.978;2023-02-28T02:10:54;-1.20;98.00
26575;DHT22;67165;50.256;10.978;2023-02-28T02:18:43;-1.30;98.00
26575;DHT22;67165;50.256;10.978;2023-02-28T02:45:31;-1.90;98.00
26575;DHT22;67165;50.256;10.978;2023-02-28T02:48:03;-1.90;98.00
26575;DHT22;67165;50.256;10.978;2023-02-28T02:50:41;-1.90;98.00
26575;DHT22;67165;50.256;10.978;2023-02-28T02:53:09;-1.90;98.00
26575;DHT22;67165;50.256;10.978;2023-02-28T02:55:40;-2.00;98.00
26575;DHT22;67165;50.256;10.978;2023-02-28T02:58:11;-2.00;98.00
26575;DHT22;67165;50.256;10.978;2023-02-28T03:00:43;-2.10;98.00
26575;DHT22;67165;50.256;10.978;2023-02-28T03:03:11;-2.20;98.00
26575;DHT22;67165;50.256;10.978;2023-02-28T03:05:50;-2.20;98.00
26575;DHT22;67165;50.256;10.978;2023-02-28T03:08:16;-2.10;98.00
26575;DHT22;67165;50.256;10.978;2023-02-28T03:10:44;-2.10;98.00
26575;DHT22;67165;50.256;10.978;2023-02-28T03:18:41;-2.20;98.00
26575;DHT22;67165;50.256;10.978;2023-02-28T03:21:14;-2.30;98.00
26575;DHT22;67165;50.256;10.978;2023-02-28T03:26:41;-2.40;98.00
26575;DHT22;67165;50.256;10.978;2023-02-28T03:29:20;-2.40;98.00
26575;DHT22;67165;50.256;10.978;2023-02-28T03:31:52;-2.40;98.00
26575;DHT22;67165;50.256;10.978;2023-02-28T03:36:57;-2.50;98.00
26575;DHT22;67165;50.256;10.978;2023-02-28T03:39:28;-2.50;98.00
26575;DHT22;67165;50.256;10.978;2023-02-28T03:42:02;-2.50;98.00
26575;DHT22;67165;50.256;10.978;2023-02-28T03:47:38;-2.60;98.00
26575;DHT22;67165;50.256;10.978;2023-02-28T03:52:57;-2.70;98.00
26575;DHT22;67165;50.256;10.978;2023-02-28T03:55:30;-2.80;98.00
26575;DHT22;67165;50.256;10.978;2023-02-28T03:58:21;-2.80;98.00
26575;DHT22;67165;50.256;10.978;2023-02-28T04:00:53;-2.70;98.00
26575;DHT22;67165;50.256;10.978;2023-02-28T04:03:20;-2.70;98.00
26575;DHT22;67165;50.256;10.978;2023-02-28T04:05:52;-2.70;98.00
26575;DHT22;67165;50.256;10.978;2023-02-28T04:08:18;-2.70;98.00
26575;DHT22;67165;50.256;10.978;2023-02-28T04:10:48;-2.80;98.00
26575;DHT22;67165;50.256;10.978;2023-02-28T04:13:16;-2.80;98.00
26575;DHT22;67165;50.256;10.978;2023-02-28T04:15:42;-2.80;98.00
26575;DHT22;67165;50.256;10.978;2023-02-28T04:18:08;-2.90;98.00
26575;DHT22;67165;50.256;10.978;2023-02-28T04:20:33;-2.90;98.00
26575;DHT22;67165;50.256;10.978;2023-02-28T04:22:59;-2.90;98.00
26575;DHT22;67165;50.256;10.978;2023-02-28T04:25:24;-2.90;98.00
26575;DHT22;67165;50.256;10.978;2023-02-28T04:27:50;-3.00;98.00
26575;DHT22;67165;50.256;10.978;2023-02-28T04:30:16;-3.00;98.00
26575;DHT22;67165;50.256;10.978;2023-02-28T04:32:41;-3.00;98.00
26575;DHT22;67165;50.256;10.978;2023-02-28T04:35:08;-2.90;98.00
26575;DHT22;67165;50.256;10.978;2023-02-28T04:37:33;-2.90;98.00
26575;DHT22;67165;50.256;10.978;2023-02-28T04:40:00;-2.90;98.00
26575;DHT22;67165;50.256;10.978;2023-02-28T04:42:28;-2.90;98.00
26575;DHT22;67165;50.256;10.978;2023-02-28T04:45:01;-2.90;98.00
26575;DHT22;67165;50.256;10.978;2023-02-28T04:47:26;-2.70;98.00
26575;DHT22;67165;50.256;10.978;2023-02-28T04:49:52;-2.70;98.00
26575;DHT22;67165;50.256;10.978;2023-02-28T04:52:17;-2.70;98.00
26575;DHT22;67165;50.256;10.978;2023-02-28T04:54:43;-2.80;98.00
26575;DHT22;67165;50.256;10.978;2023-02-28T04:57:09;-2.70;98.00
26575;DHT22;67165;50.256;10.978;2023-02-28T04:59:35;-2.70;98.00
26575;DHT22;67165;50.256;10.978;2023-02-28T05:02:00;-2.80;98.00
26575;DHT22;67165;50.256;10.978;2023-02-28T05:04:35;-2.80;98.00
26575;DHT22;67165;50.256;10.978;2023-02-28T05:07:01;-2.80;98.00
26575;DHT22;67165;50.256;10.978;2023-02-28T05:09:28;-2.70;98.00
26575;DHT22;67165;50.256;10.978;2023-02-28T05:11:54;-2.70;98.00
26575;DHT22;67165;50.256;10.978;2023-02-28T05:14:20;-2.80;98.00
26575;DHT22;67165;50.256;10.978;2023-02-28T05:16:46;-2.70;98.00
26575;DHT22;67165;50.256;10.978;2023-02-28T05:19:11;-2.60;98.00
26575;DHT22;67165;50.256;10.978;2023-02-28T05:21:41;-2.70;98.00
26575;DHT22;67165;50.256;10.978;2023-02-28T05:24:13;-2.60;98.00
26575;DHT22;67165;50.256;10.978;2023-02-28T05:26:42;-2.60;98.00
26575;DHT22;67165;50.256;10.978;2023-02-28T05:29:09;-2.60;98.00
26575;DHT22;67165;50.256;10.978;2023-02-28T05:31:35;-2.60;98.00
26575;DHT22;67165;50.256;10.978;2023-02-28T05:34:00;-2.60;98.00
26575;DHT22;67165;50.256;10.978;2023-02-28T05:36:26;-2.70;98.00
26575;DHT22;67165;50.256;10.978;2023-02-28T05:38:52;-2.60;98.00
26575;DHT22;67165;50.256;10.978;2023-02-28T05:41:18;-2.60;98.00
26575;DHT22;67165;50.256;10.978;2023-02-28T05:43:45;-2.70;98.00
26575;DHT22;67165;50.256;10.978;2023-02-28T05:46:12;-2.70;98.00
26575;DHT22;67165;50.256;10.978;2023-02-28T05:48:39;-2.70;98.00
26575;DHT22;67165;50.256;10.978;2023-02-28T05:51:06;-2.70;98.00
26575;DHT22;67165;50.256;10.978;2023-02-28T05:53:32;-2.80;98.00
26575;DHT22;67165;50.256;10.978;2023-02-28T05:55:58;-2.70;98.00
26575;DHT22;67165;50.256;10.978;2023-02-28T05:58:24;-2.70;98.00
26575;DHT22;67165;50.256;10.978;2023-02-28T06:01:00;-2.60;98.00
26575;DHT22;67165;50.256;10.978;2023-02-28T06:03:26;-2.60;98.00
26575;DHT22;67165;50.256;10.978;2023-02-28T06:05:52;-2.70;98.00
26575;DHT22;67165;50.256;10.978;2023-02-28T06:08:18;-2.60;98.00
26575;DHT22;67165;50.256;10.978;2023-02-28T06:10:44;-2.60;98.00
26575;DHT22;67165;50.256;10.978;2023-02-28T06:13:10;-2.50;98.00
26575;DHT22;67165;50.256;10.978;2023-02-28T06:15:37;-2.40;98.00
26575;DHT22;67165;50.256;10.978;2023-02-28T06:18:03;-2.50;98.00
26575;DHT22;67165;50.256;10.978;2023-02-28T06:20:28;-2.40;98.00
26575;DHT22;67165;50.256;10.978;2023-02-28T06:22:56;-2.40;98.00
26575;DHT22;67165;50.256;10.978;2023-02-28T06:25:24;-2.40;98.00
26575;DHT22;67165;50.256;10.978;2023-02-28T06:27:50;-2.30;98.00
26575;DHT22;67165;50.256;10.978;2023-02-28T06:30:16;-2.30;98.00
26575;DHT22;67165;50.256;10.978;2023-02-28T06:32:41;-2.20;98.00
26575;DHT22;67165;50.256;10.978;2023-02-28T06:35:07;-2.20;98.00
26575;DHT22;67165;50.256;10.978;2023-02-28T06:37:33;-2.20;98.00
26575;DHT22;67165;50.256;10.978;2023-02-28T06:39:59;-2.20;98.00
26575;DHT22;67165;50.256;10.978;2023-02-28T06:42:25;-2.10;98.00
26575;DHT22;67165;50.256;10.978;2023-02-28T06:44:55;-2.10;98.00
26575;DHT22;67165;50.256;10.978;2023-02-28T06:47:21;-2.10;98.00
26575;DHT22;67165;50.256;10.978;2023-02-28T06:49:47;-2.10;98.00
26575;DHT22;67165;50.256;10.978;2023-02-28T06:52:12;-2.00;98.00
26575;DHT22;67165;50.256;10.978;2023-02-28T06:54:38;-2.00;98.00
26575;DHT22;67165;50.256;10.978;2023-02-28T06:57:04;-2.00;98.00
26575;DHT22;67165;50.256;10.978;2023-02-28T06:59:30;-1.80;98.00
26575;DHT22;67165;50.256;10.978;2023-02-28T07:01:55;-1.80;98.00
26575;DHT22;67165;50.256;10.978;2023-02-28T07:04:21;-1.80;98.00
26575;DHT22;67165;50.256;10.978;2023-02-28T07:06:47;-1.70;98.00
26575;DHT22;67165;50.256;10.978;2023-02-28T07:09:13;-1.70;98.00
26575;DHT22;67165;50.256;10.978;2023-02-28T07:11:40;-1.60;98.00
26575;DHT22;67165;50.256;10.978;2023-02-28T07:14:06;-1.60;98.00
26575;DHT22;67165;50.256;10.978;2023-02-28T07:16:32;-1.50;98.00
26575;DHT22;67165;50.256;10.978;2023-02-28T07:18:58;-1.50;98.00
26575;DHT22;67165;50.256;10.978;2023-02-28T07:21:24;-1.50;98.00
26575;DHT22;67165;50.256;10.978;2023-02-28T07:23:50;-1.50;98.00
26575;DHT22;67165;50.256;10.978;2023-02-28T07:26:18;-1.40;98.00
26575;DHT22;67165;50.256;10.978;2023-02-28T07:28:45;-1.40;98.00
26575;DHT22;67165;50.256;10.978;2023-02-28T07:31:12;-1.30;98.00
26575;DHT22;67165;50.256;10.978;2023-02-28T07:33:39;-1.20;98.00
26575;DHT22;67165;50.256;10.978;2023-02-28T07:36:07;-1.10;98.00
26575;DHT22;67165;50.256;10.978;2023-02-28T07:38:37;-1.10;98.00
26575;DHT22;67165;50.256;10.978;2023-02-28T07:41:03;-0.90;98.00
26575;DHT22;67165;50.256;10.978;2023-02-28T07:43:34;-0.90;98.00
26575;DHT22;67165;50.256;10.978;2023-02-28T07:46:08;-0.80;98.00
26575;DHT22;67165;50.256;10.978;2023-02-28T07:48:34;-0.80;98.00
26575;DHT22;67165;50.256;10.978;2023-02-28T07:51:00;-0.80;98.00
26575;DHT22;67165;50.256;10.978;2023-02-28T07:53:27;-0.60;98.00
26575;DHT22;67165;50.256;10.978;2023-02-28T07:55:58;-0.50;98.00
26575;DHT22;67165;50.256;10.978;2023-02-28T07:58:24;-0.60;98.00
26575;DHT22;67165;50.256;10.978;2023-02-28T08:00:51;-0.40;98.00
26575;DHT22;67165;50.256;10.978;2023-02-28T08:03:18;-0.40;98.00
26575;DHT22;67165;50.256;10.978;2023-02-28T08:05:45;-0.40;98.00
26575;DHT22;67165;50.256;10.978;2023-02-28T08:08:11;-0.30;98.00
26575;DHT22;67165;50.256;10.978;2023-02-28T08:10:37;-0.30;98.00
26575;DHT22;67165;50.256;10.978;2023-02-28T08:13:03;-0.20;98.00
26575;DHT22;67165;50.256;10.978;2023-02-28T08:15:28;-0.20;98.00
26575;DHT22;67165;50.256;10.978;2023-02-28T08:17:54;-0.10;98.00
26575;DHT22;67165;50.256;10.978;2023-02-28T08:20:22;0.00;98.00
26575;DHT22;67165;50.256;10.978;2023-02-28T08:22:48;0.10;98.00
26575;DHT22;67165;50.256;10.978;2023-02-28T08:25:14;0.00;98.00
26575;DHT22;67165;50.256;10.978;2023-02-28T08:27:39;0.00;98.00
26575;DHT22;67165;50.256;10.978;2023-02-28T08:30:06;0.00;98.00
26575;DHT22;67165;50.256;10.978;2023-02-28T08:32:33;0.00;98.00
26575;DHT22;67165;50.256;10.978;2023-02-28T08:34:59;0.10;98.00
26575;DHT22;67165;50.256;10.978;2023-02-28T08:37:25;0.00;98.00
26575;DHT22;67165;50.256;10.978;2023-02-28T08:39:50;0.10;98.00
26575;DHT22;67165;50.256;10.978;2023-02-28T08:42:16;0.00;98.00
26575;DHT22;67165;50.256;10.978;2023-02-28T08:44:42;0.10;98.00
26575;DHT22;67165;50.256;10.978;2023-02-28T08:47:07;0.20;98.00
26575;DHT22;67165;50.256;10.978;2023-02-28T08:49:33;0.20;98.00
26575;DHT22;67165;50.256;10.978;2023-02-28T08:51:59;0.20;98.00
26575;DHT22;67165;50.256;10.978;2023-02-28T08:54:24;0.20;98.00
26575;DHT22;67165;50.256;10.978;2023-02-28T08:56:50;0.30;98.00
26575;DHT22;67165;50.256;10.978;2023-02-28T08:59:16;0.40;98.00
26575;DHT22;67165;50.256;10.978;2023-02-28T09:01:41;0.40;98.00
26575;DHT22;67165;50.256;10.978;2023-02-28T09:04:09;0.50;98.00
26575;DHT22;67165;50.256;10.978;2023-02-28T09:06:36;0.50;98.00
26575;DHT22;67165;50.256;10.978;2023-02-28T09:09:02;0.60;98.00
26575;DHT22;67165;50.256;10.978;2023-02-28T09:11:31;0.70;98.00
26575;DHT22;67165;50.256;10.978;2023-02-28T09:13:58;0.70;98.00
26575;DHT22;67165;50.256;10.978;2023-02-28T09:16:24;0.70;98.00
26575;DHT22;67165;50.256;10.978;2023-02-28T09:18:50;0.90;98.00
26575;DHT22;67165;50.256;10.978;2023-02-28T09:21:17;0.90;98.00
26575;DHT22;67165;50.256;10.978;2023-02-28T09:23:44;0.80;98.00
26575;DHT22;67165;50.256;10.978;2023-02-28T09:26:15;1.00;98.00
26575;DHT22;67165;50.256;10.978;2023-02-28T09:28:41;1.00;98.00
26575;DHT22;67165;50.256;10.978;2023-02-28T09:31:13;1.00;98.00
26575;DHT22;67165;50.256;10.978;2023-02-28T09:33:38;1.10;98.00
26575;DHT22;67165;50.256;10.978;2023-02-28T09:36:04;1.10;98.00
26575;DHT22;67165;50.256;10.978;2023-02-28T09:38:30;1.20;98.00
26575;DHT22;67165;50.256;10.978;2023-02-28T09:41:02;1.30;98.00
26575;DHT22;67165;50.256;10.978;2023-02-28T09:43:35;1.20;98.00
26575;DHT22;67165;50.256;10.978;2023-02-28T09:46:17;1.30;98.00
26575;DHT22;67165;50.256;10.978;2023-02-28T09:48:47;1.30;98.00
26575;DHT22;67165;50.256;10.978;2023-02-28T09:53:39;1.40;98.00
26575;DHT22;67165;50.256;10.978;2023-02-28T09:56:10;1.50;98.00
26575;DHT22;67165;50.256;10.978;2023-02-28T10:07:17;1.50;98.00
26575;DHT22;67165;50.256;10.978;2023-02-28T10:09:46;1.60;98.00
26575;DHT22;67165;50.256;10.978;2023-02-28T10:12:14;1.70;98.00
26575;DHT22;67165;50.256;10.978;2023-02-28T10:14:44;1.70;98.00
26575;DHT22;67165;50.256;10.978;2023-02-28T10:17:14;1.70;98.00
26575;DHT22;67165;50.256;10.978;2023-02-28T10:25:35;1.80;98.00
26575;DHT22;67165;50.256;10.978;2023-02-28T10:30:36;1.80;98.00
26575;DHT22;67165;50.256;10.978;2023-02-28T10:33:02;1.80;98.00
26575;DHT22;67165;50.256;10.978;2023-02-28T10:35:28;1.70;98.00
26575;DHT22;67165;50.256;10.978;2023-02-28T10:37:59;1.70;98.00
26575;DHT22;67165;50.256;10.978;2023-02-28T10:40:31;1.80;98.00
26575;DHT22;67165;50.256;10.978;2023-02-28T10:43:05;1.90;98.00
26575;DHT22;67165;50.256;10.978;2023-02-28T10:45:33;1.90;98.00
26575;DHT22;67165;50.256;10.978;2023-02-28T10:50:53;2.00;98.00
26575;DHT22;67165;50.256;10.978;2023-02-28T10:58:51;2.10;98.00
26575;DHT22;67165;50.256;10.978;2023-02-28T11:04:03;2.20;98.00
26575;DHT22;67165;50.256;10.978;2023-02-28T11:06:33;2.10;98.00
26575;DHT22;67165;50.256;10.978;2023-02-28T11:11:49;2.10;98.00
26575;DHT22;67165;50.256;10.978;2023-02-28T11:14:24;2.00;98.00
26575;DHT22;67165;50.256;10.978;2023-02-28T11:16:51;2.00;98.00
26575;DHT22;67165;50.256;10.978;2023-02-28T11:19:30;2.10;98.00
26575;DHT22;67165;50.256;10.978;2023-02-28T11:22:01;2.20;98.00
26575;DHT22;67165;50.256;10.978;2023-02-28T11:24:31;2.10;98.00
26575;DHT22;67165;50.256;10.978;2023-02-28T11:26:59;2.20;98.00
26575;DHT22;67165;50.256;10.978;2023-02-28T11:29:25;2.20;98.00
26575;DHT22;67165;50.256;10.978;2023-02-28T11:34:38;2.40;98.00
26575;DHT22;67165;50.256;10.978;2023-02-28T11:37:11;2.50;98.00
26575;DHT22;67165;50.256;10.978;2023-02-28T11:39:36;2.50;98.00
26575;DHT22;67165;50.256;10.978;2023-02-28T11:50:58;2.60;98.00
26575;DHT22;67165;50.256;10.978;2023-02-28T11:56:16;2.60;98.00
26575;DHT22;67165;50.256;10.978;2023-02-28T12:09:59;2.60;98.00
26575;DHT22;67165;50.256;10.978;2023-02-28T12:26:28;2.60;98.00
26575;DHT22;67165;50.256;10.978;2023-02-28T12:34:20;2.80;98.00
26575;DHT22;67165;50.256;10.978;2023-02-28T12:36:49;2.90;98.00
26575;DHT22;67165;50.256;10.978;2023-02-28T12:39:23;2.90;98.00
26575;DHT22;67165;50.256;10.978;2023-02-28T12:41:56;2.90;98.00
26575;DHT22;67165;50.256;10.978;2023-02-28T12:46:56;2.90;98.00
26575;DHT22;67165;50.256;10.978;2023-02-28T12:50:09;2.80;98.00
26575;DHT22;67165;50.256;10.978;2023-02-28T12:52:24;2.90;98.00
26575;DHT22;67165;50.256;10.978;2023-02-28T13:05:32;3.00;98.00
26575;DHT22;67165;50.256;10.978;2023-02-28T13:10:49;3.20;98.00
26575;DHT22;67165;50.256;10.978;2023-02-28T13:13:27;3.20;98.00
26575;DHT22;67165;50.256;10.978;2023-02-28T13:16:09;3.20;98.00
26575;DHT22;67165;50.256;10.978;2023-02-28T13:18:40;3.10;98.00
26575;DHT22;67165;50.256;10.978;2023-02-28T13:21:28;3.20;98.00
26575;DHT22;67165;50.256;10.978;2023-02-28T13:29:20;3.10;98.00
26575;DHT22;67165;50.256;10.978;2023-02-28T13:34:46;3.10;98.00
26575;DHT22;67165;50.256;10.978;2023-02-28T13:39:58;3.20;98.00
26575;DHT22;67165;50.256;10.978;2023-02-28T13:50:21;3.20;98.00
26575;DHT22;67165;50.256;10.978;2023-02-28T13:55:38;3.20;98.00
26575;DHT22;67165;50.256;10.978;2023-02-28T14:01:16;3.30;98.00
26575;DHT22;67165;50.256;10.978;2023-02-28T14:04:04;3.20;98.00
26575;DHT22;67165;50.256;10.978;2023-02-28T14:06:37;3.30;98.00
26575;DHT22;67165;50.256;10.978;2023-02-28T14:15:47;3.20;98.00
26575;DHT22;67165;50.256;10.978;2023-02-28T14:20:48;3.30;98.00
26575;DHT22;67165;50.256;10.978;2023-02-28T14:23:26;3.30;98.00
26575;DHT22;67165;50.256;10.978;2023-02-28T14:26:06;3.40;98.00
26575;DHT22;67165;50.256;10.978;2023-02-28T14:31:34;3.30;98.00
26575;DHT22;67165;50.256;10.978;2023-02-28T14:36:50;3.40;98.00
26575;DHT22;67165;50.256;10.978;2023-02-28T14:39:21;3.40;98.00
26575;DHT22;67165;50.256;10.978;2023-02-28T14:41:47;3.30;98.00
26575;DHT22;67165;50.256;10.978;2023-02-28T14:46:55;3.30;98.00
26575;DHT22;67165;50.256;10.978;2023-02-28T14:52:26;3.40;98.00
26575;DHT22;67165;50.256;10.978;2023-02-28T14:55:09;3.40;98.00
26575;DHT22;67165;50.256;10.978;2023-02-28T14:57:51;3.30;98.00
26575;DHT22;67165;50.256;10.978;2023-02-28T15:00:24;3.20;98.00
26575;DHT22;67165;50.256;10.978;2023-02-28T15:02:50;3.20;98.00
26575;DHT22;67165;50.256;10.978;2023-02-28T15:05:27;3.20;98.00
26575;DHT22;67165;50.256;10.978;2023-02-28T15:08:16;3.20;98.00
26575;DHT22;67165;50.256;10.978;2023-02-28T15:11:00;3.20;98.00
26575;DHT22;67165;50.256;10.978;2023-02-28T15:13:45;3.20;98.00
26575;DHT22;67165;50.256;10.978;2023-02-28T15:16:32;3.20;98.00
26575;DHT22;67165;50.256;10.978;2023-02-28T15:19:02;3.20;98.00
26575;DHT22;67165;50.256;10.978;2023-02-28T15:21:39;3.10;98.00
26575;DHT22;67165;50.256;10.978;2023-02-28T15:26:58;3.10;98.00
26575;DHT22;67165;50.256;10.978;2023-02-28T15:29:43;3.10;98.00
26575;DHT22;67165;50.256;10.978;2023-02-28T15:32:24;3.10;98.00
26575;DHT22;67165;50.256;10.978;2023-02-28T15:34:50;3.00;98.00
26575;DHT22;67165;50.256;10.978;2023-02-28T15:40:26;3.10;98.00
26575;DHT22;67165;50.256;10.978;2023-02-28T15:45:38;3.00;98.00
26575;DHT22;67165;50.256;10.978;2023-02-28T15:50:55;2.90;98.00
26575;DHT22;67165;50.256;10.978;2023-02-28T15:53:25;2.90;98.00
26575;DHT22;67165;50.256;10.978;2023-02-28T15:56:01;2.80;98.00
26575;DHT22;67165;50.256;10.978;2023-02-28T15:58:27;2.80;98.00
26575;DHT22;67165;50.256;10.978;2023-02-28T16:01:04;2.80;98.00
26575;DHT22;67165;50.256;10.978;2023-02-28T16:03:44;2.80;98.00
26575;DHT22;67165;50.256;10.978;2023-02-28T16:06:21;2.70;98.00
26575;DHT22;67165;50.256;10.978;2023-02-28T16:08:48;2.60;98.00
26575;DHT22;67165;50.256;10.978;2023-02-28T16:11:16;2.60;98.00
26575;DHT22;67165;50.256;10.978;2023-02-28T16:13:42;2.50;98.00
26575;DHT22;67165;50.256;10.978;2023-02-28T16:16:10;2.50;98.00
26575;DHT22;67165;50.256;10.978;2023-02-28T16:18:39;2.40;98.00
26575;DHT22;67165;50.256;10.978;2023-02-28T16:21:05;2.40;98.00
26575;DHT22;67165;50.256;10.978;2023-02-28T16:23:31;2.40;98.00
26575;DHT22;67165;50.256;10.978;2023-02-28T16:25:56;2.30;98.00
26575;DHT22;67165;50.256;10.978;2023-02-28T16:28:30;2.30;98.00
26575;DHT22;67165;50.256;10.978;2023-02-28T16:30:59;2.30;98.00
26575;DHT22;67165;50.256;10.978;2023-02-28T16:33:25;2.20;98.00
26575;DHT22;67165;50.256;10.978;2023-02-28T16:35:51;2.10;98.00
26575;DHT22;67165;50.256;10.978;2023-02-28T16:38:17;2.10;98.00
26575;DHT22;67165;50.256;10.978;2023-02-28T16:40:43;2.00;98.00
26575;DHT22;67165;50.256;10.978;2023-02-28T16:43:18;2.00;98.00
26575;DHT22;67165;50.256;10.978;2023-02-28T16:45:46;2.00;98.00
26575;DHT22;67165;50.256;10.978;2023-02-28T16:48:14;1.90;98.00
26575;DHT22;67165;50.256;10.978;2023-02-28T16:50:40;1.90;98.00
26575;DHT22;67165;50.256;10.978;2023-02-28T16:53:06;1.80;98.00
26575;DHT22;67165;50.256;10.978;2023-02-28T16:55:32;1.70;98.00
26575;DHT22;67165;50.256;10.978;2023-02-28T16:57:59;1.70;98.00
26575;DHT22;67165;50.256;10.978;2023-02-28T17:00:27;1.60;98.00
26575;DHT22;67165;50.256;10.978;2023-02-28T17:02:53;1.50;98.00
26575;DHT22;67165;50.256;10.978;2023-02-28T17:05:20;1.50;98.00
26575;DHT22;67165;50.256;10.978;2023-02-28T17:07:47;1.50;98.00
26575;DHT22;67165;50.256;10.978;2023-02-28T17:10:22;1.50;98.00
26575;DHT22;67165;50.256;10.978;2023-02-28T17:12:48;1.40;98.00
26575;DHT22;67165;50.256;10.978;2023-02-28T17:15:16;1.30;98.00
26575;DHT22;67165;50.256;10.978;2023-02-28T17:17:42;1.30;98.00
26575;DHT22;67165;50.256;10.978;2023-02-28T17:20:14;1.20;98.00
26575;DHT22;67165;50.256;10.978;2023-02-28T17:22:40;1.10;98.00
26575;DHT22;67165;50.256;10.978;2023-02-28T17:25:07;1.10;98.00
26575;DHT22;67165;50.256;10.978;2023-02-28T17:27:33;1.10;98.00
26575;DHT22;67165;50.256;10.978;2023-02-28T17:29:58;1.00;98.00
26575;DHT22;67165;50.256;10.978;2023-02-28T17:32:25;0.90;98.00
26575;DHT22;67165;50.256;10.978;2023-02-28T17:34:51;0.90;98.00
26575;DHT22;67165;50.256;10.978;2023-02-28T17:37:16;0.90;98.00
26575;DHT22;67165;50.256;10.978;2023-02-28T17:39:42;0.90;98.00
26575;DHT22;67165;50.256;10.978;2023-02-28T17:42:08;0.80;98.00
26575;DHT22;67165;50.256;10.978;2023-02-28T17:44:33;0.80;98.00
26575;DHT22;67165;50.256;10.978;2023-02-28T17:46:59;0.70;98.00
26575;DHT22;67165;50.256;10.978;2023-02-28T17:49:25;0.60;98.00
26575;DHT22;67165;50.256;10.978;2023-02-28T17:51:50;0.60;98.00
26575;DHT22;67165;50.256;10.978;2023-02-28T17:54:16;0.70;98.00
26575;DHT22;67165;50.256;10.978;2023-02-28T17:56:42;0.70;98.00
26575;DHT22;67165;50.256;10.978;2023-02-28T17:59:11;0.60;98.00
26575;DHT22;67165;50.256;10.978;2023-02-28T18:01:37;0.60;98.00
26575;DHT22;67165;50.256;10.978;2023-02-28T18:04:03;0.60;98.00
26575;DHT22;67165;50.256;10.978;2023-02-28T18:06:49;0.60;98.00
26575;DHT22;67165;50.256;10.978;2023-02-28T18:09:21;0.50;98.00
26575;DHT22;67165;50.256;10.978;2023-02-28T18:11:47;0.50;98.00
26575;DHT22;67165;50.256;10.978;2023-02-28T18:14:18;0.40;98.00
26575;DHT22;67165;50.256;10.978;2023-02-28T18:16:44;0.40;98.00
26575;DHT22;67165;50.256;10.978;2023-02-28T18:19:10;0.40;98.00
26575;DHT22;67165;50.256;10.978;2023-02-28T18:21:41;0.30;98.00
26575;DHT22;67165;50.256;10.978;2023-02-28T18:24:07;0.30;98.00
26575;DHT22;67165;50.256;10.978;2023-02-28T18:26:33;0.30;98.00
26575;DHT22;67165;50.256;10.978;2023-02-28T18:28:59;0.30;98.00
26575;DHT22;67165;50.256;10.978;2023-02-28T18:31:24;0.30;98.00
26575;DHT22;67165;50.256;10.978;2023-02-28T18:33:51;0.30;98.00
26575;DHT22;67165;50.256;10.978;2023-02-28T18:36:19;0.20;98.00
26575;DHT22;67165;50.256;10.978;2023-02-28T18:38:46;0.30;98.00
26575;DHT22;67165;50.256;10.978;2023-02-28T18:41:12;0.20;98.00
26575;DHT22;67165;50.256;10.978;2023-02-28T18:43:38;0.20;98.00
26575;DHT22;67165;50.256;10.978;2023-02-28T18:46:05;0.20;98.00
26575;DHT22;67165;50.256;10.978;2023-02-28T18:48:31;0.20;98.00